createdAt,value
2023-10-04T00:02:22.451Z,1.98
2023-10-04T00:04:53.471Z,2.05
2023-10-04T00:10:05.584Z,1.75
2023-10-04T00:12:38.560Z,1.63
2023-10-04T00:15:14.362Z,1.83
2023-10-04T00:17:45.801Z,2.15
2023-10-04T00:20:18.193Z,2.33
2023-10-04T00:22:51.941Z,2.45
2023-10-04T00:25:24.969Z,3.08
2023-10-04T00:27:57.625Z,2.20
2023-10-04T00:30:30.940Z,2.00
2023-10-04T00:33:07.593Z,1.92
2023-10-04T00:35:45.032Z,1.88
2023-10-04T00:38:21.374Z,2.22
2023-10-04T00:40:52.438Z,2.00
2023-10-04T00:43:26.299Z,2.13
2023-10-04T00:45:57.072Z,1.55
2023-10-04T00:48:36.345Z,2.08
2023-10-04T00:51:08.143Z,2.75
2023-10-04T00:53:44.094Z,2.17
2023-10-04T00:56:18.098Z,2.38
2023-10-04T00:58:54.233Z,2.40
2023-10-04T01:01:31.414Z,2.95
2023-10-04T01:04:03.657Z,3.10
2023-10-04T01:06:38.240Z,2.80
2023-10-04T01:09:14.235Z,2.97
2023-10-04T01:11:54.983Z,2.70
2023-10-04T01:14:29.670Z,2.88
2023-10-04T01:17:01.632Z,3.35
2023-10-04T01:19:32.193Z,3.13
2023-10-04T01:22:09.027Z,2.55
2023-10-04T01:24:43.167Z,2.92
2023-10-04T01:27:14.005Z,2.88
2023-10-04T01:29:48.076Z,2.83
2023-10-04T01:32:21.042Z,3.58
2023-10-04T01:34:51.797Z,2.90
2023-10-04T01:37:25.055Z,2.47
2023-10-04T01:39:56.033Z,3.22
2023-10-04T01:42:27.718Z,3.22
2023-10-04T01:45:01.603Z,2.40
2023-10-04T01:47:32.373Z,2.30
2023-10-04T01:50:03.149Z,2.95
2023-10-04T01:52:36.658Z,2.47
2023-10-04T01:55:11.813Z,2.80
2023-10-04T01:57:53.592Z,2.92
2023-10-04T02:00:27.189Z,3.40
2023-10-04T02:02:58.005Z,3.35
2023-10-04T02:05:34.157Z,2.90
2023-10-04T02:08:16.444Z,3.58
2023-10-04T02:10:52.174Z,3.53
2023-10-04T02:13:27.211Z,3.15
2023-10-04T02:16:00.658Z,2.38
2023-10-04T02:18:31.419Z,2.95
2023-10-04T02:23:37.202Z,3.58
2023-10-04T02:26:08.765Z,3.08
2023-10-04T02:28:41.385Z,2.97
2023-10-04T02:31:14.053Z,3.22
2023-10-04T02:33:52.275Z,3.13
2023-10-04T02:36:27.532Z,3.42
2023-10-04T02:39:08.720Z,3.22
2023-10-04T02:41:43.262Z,3.35
2023-10-04T02:44:21.300Z,4.97
2023-10-04T02:46:55.401Z,3.63
2023-10-04T02:49:25.790Z,3.75
2023-10-04T02:52:01.506Z,3.90
2023-10-04T02:54:35.488Z,4.10
2023-10-04T02:57:13.146Z,3.80
2023-10-04T02:59:44.281Z,3.05
2023-10-04T03:02:17.288Z,3.65
2023-10-04T03:04:51.467Z,3.83
2023-10-04T03:07:24.816Z,3.58
2023-10-04T03:10:00.201Z,4.05
2023-10-04T03:12:31.281Z,4.63
2023-10-04T03:15:02.457Z,4.78
2023-10-04T03:17:33.026Z,4.57
2023-10-04T03:20:05.049Z,3.28
2023-10-04T03:22:39.793Z,3.78
2023-10-04T03:25:16.544Z,5.05
2023-10-04T03:27:50.095Z,3.78
2023-10-04T03:30:24.608Z,4.70
2023-10-04T03:32:57.554Z,4.80
2023-10-04T03:35:30.849Z,4.13
2023-10-04T03:38:03.703Z,3.20
2023-10-04T03:40:40.052Z,3.70
2023-10-04T03:43:14.707Z,3.38
2023-10-04T03:45:47.982Z,4.43
2023-10-04T03:48:20.146Z,4.03
2023-10-04T03:50:51.920Z,3.88
2023-10-04T03:53:23.876Z,3.85
2023-10-04T03:56:00.620Z,3.70
2023-10-04T03:58:32.102Z,4.45
2023-10-04T04:01:06.719Z,3.83
2023-10-04T04:03:38.176Z,3.92
2023-10-04T04:06:13.501Z,4.03
2023-10-04T04:08:44.786Z,4.60
2023-10-04T04:11:30.554Z,4.00
2023-10-04T04:14:01.108Z,3.45
2023-10-04T04:16:31.980Z,3.75
2023-10-04T04:19:03.849Z,4.28
2023-10-04T04:21:35.195Z,3.97
2023-10-04T04:24:05.659Z,4.68
2023-10-04T04:26:40.628Z,4.50
2023-10-04T04:29:18.275Z,4.07
2023-10-04T04:31:50.657Z,4.20
2023-10-04T04:34:21.086Z,4.68
2023-10-04T04:36:52.191Z,3.88
2023-10-04T04:39:29.816Z,3.78
2023-10-04T04:42:06.724Z,3.80
2023-10-04T04:44:42.394Z,3.63
2023-10-04T04:47:13.817Z,4.20
2023-10-04T04:49:44.834Z,3.53
2023-10-04T04:52:16.227Z,3.50
2023-10-04T04:54:54.414Z,3.42
2023-10-04T04:57:27.288Z,4.03
2023-10-04T04:59:58.193Z,3.25
2023-10-04T05:02:33.712Z,2.40
2023-10-04T05:05:13.286Z,2.50
2023-10-04T05:07:44.473Z,2.05
2023-10-04T05:10:15.474Z,2.53
2023-10-04T05:12:51.819Z,2.75
2023-10-04T05:15:35.390Z,2.17
2023-10-04T05:18:12.585Z,2.40
2023-10-04T05:20:43.218Z,2.10
2023-10-04T05:23:13.665Z,3.25
2023-10-04T05:25:44.693Z,2.25
2023-10-04T05:28:21.521Z,3.70
2023-10-04T05:30:55.167Z,2.30
2023-10-04T05:33:29.474Z,2.55
2023-10-04T05:36:04.483Z,2.28
2023-10-04T05:38:37.030Z,2.22
2023-10-04T05:41:11.050Z,2.00
2023-10-04T05:43:44.601Z,1.88
2023-10-04T05:46:16.539Z,2.22
2023-10-04T05:48:47.499Z,2.05
2023-10-04T05:51:19.361Z,2.38
2023-10-04T05:53:54.283Z,2.22
2023-10-04T05:56:27.037Z,1.83
2023-10-04T05:59:01.960Z,1.85
2023-10-04T06:01:35.762Z,1.73
2023-10-04T06:04:07.673Z,1.40
2023-10-04T06:06:38.711Z,1.38
2023-10-04T06:09:11.039Z,1.77
2023-10-04T06:11:41.796Z,1.48
2023-10-04T06:14:18.904Z,1.38
2023-10-04T06:16:55.552Z,1.52
2023-10-04T06:19:30.549Z,1.38
2023-10-04T06:22:02.140Z,1.52
2023-10-04T06:24:32.541Z,2.60
2023-10-04T06:27:03.516Z,1.92
2023-10-04T06:29:38.281Z,1.38
2023-10-04T06:32:11.391Z,1.77
2023-10-04T06:34:44.479Z,1.55
2023-10-04T06:37:17.384Z,2.08
2023-10-04T06:39:57.530Z,1.85
2023-10-04T06:42:30.504Z,1.75
2023-10-04T06:45:04.109Z,1.95
2023-10-04T06:47:35.496Z,2.92
2023-10-04T06:50:09.379Z,2.95
2023-10-04T06:52:40.217Z,2.05
2023-10-04T06:55:12.595Z,1.92
2023-10-04T06:57:50.592Z,1.55
2023-10-04T07:00:29.807Z,1.35
2023-10-04T07:03:04.925Z,1.38
2023-10-04T07:05:37.441Z,1.92
2023-10-04T07:08:10.779Z,1.42
2023-10-04T07:10:41.377Z,1.50
2023-10-04T07:13:11.703Z,1.80
2023-10-04T07:15:47.055Z,1.48
2023-10-04T07:18:20.163Z,1.02
2023-10-04T07:20:50.729Z,1.42
2023-10-04T07:23:32.281Z,1.52
2023-10-04T07:26:10.867Z,1.08
2023-10-04T07:28:43.261Z,1.15
2023-10-04T07:31:22.631Z,1.13
2023-10-04T07:33:55.273Z,1.40
2023-10-04T07:36:25.966Z,1.42
2023-10-04T07:38:59.806Z,1.05
2023-10-04T07:41:32.421Z,1.33
2023-10-04T07:44:04.015Z,1.65
2023-10-04T07:46:49.561Z,1.85
2023-10-04T07:49:24.218Z,1.52
2023-10-04T07:52:00.659Z,1.25
2023-10-04T07:54:31.672Z,1.40
2023-10-04T07:57:04.871Z,1.10
2023-10-04T07:59:38.109Z,0.75
2023-10-04T08:02:12.526Z,1.05
2023-10-04T08:04:43.305Z,1.48
2023-10-04T08:07:17.166Z,1.15
2023-10-04T08:09:48.093Z,1.02
2023-10-04T08:12:22.759Z,1.10
2023-10-04T08:15:02.478Z,1.02
2023-10-04T08:17:35.522Z,1.00
2023-10-04T08:20:08.723Z,1.02
2023-10-04T08:22:42.718Z,1.33
2023-10-04T08:25:14.863Z,2.22
2023-10-04T08:27:46.447Z,1.92
2023-10-04T08:30:19.000Z,1.52
2023-10-04T08:32:57.064Z,1.65
2023-10-04T08:35:29.760Z,1.38
2023-10-04T08:38:01.914Z,1.80
2023-10-04T08:40:43.863Z,1.17
2023-10-04T08:43:14.452Z,1.45
2023-10-04T08:45:49.898Z,1.25
2023-10-04T08:48:23.830Z,1.40
2023-10-04T08:51:02.864Z,1.48
2023-10-04T08:53:45.518Z,1.10
2023-10-04T08:56:21.121Z,1.42
2023-10-04T08:58:56.742Z,1.90
2023-10-04T09:01:30.280Z,1.45
2023-10-04T09:04:06.821Z,1.60
2023-10-04T09:09:13.279Z,1.80
2023-10-04T09:11:46.751Z,1.20
2023-10-04T09:14:19.009Z,1.33
2023-10-04T09:17:07.157Z,1.27
2023-10-04T09:19:50.087Z,1.30
2023-10-04T09:22:23.931Z,1.63
2023-10-04T09:25:01.484Z,1.23
2023-10-04T09:27:32.635Z,1.52
2023-10-04T09:30:04.780Z,1.25
2023-10-04T09:32:39.903Z,1.40
2023-10-04T09:35:15.279Z,1.38
2023-10-04T09:37:45.995Z,1.70
2023-10-04T09:40:25.191Z,1.75
2023-10-04T09:43:04.458Z,1.55
2023-10-04T09:45:35.255Z,1.02
2023-10-04T09:48:22.277Z,1.50
2023-10-04T09:51:06.556Z,1.33
2023-10-04T09:53:40.869Z,1.50
2023-10-04T09:56:14.001Z,1.70
2023-10-04T09:58:53.065Z,1.25
2023-10-04T10:01:27.001Z,1.33
2023-10-04T10:04:04.383Z,1.33
2023-10-04T10:06:52.671Z,1.52
2023-10-04T10:09:27.810Z,1.73
2023-10-04T10:12:03.771Z,1.20
2023-10-04T10:14:37.867Z,1.08
2023-10-04T10:17:08.626Z,1.50
2023-10-04T10:19:39.672Z,1.17
2023-10-04T10:22:17.446Z,1.42
2023-10-04T10:24:51.524Z,0.95
2023-10-04T10:27:23.980Z,0.95
2023-10-04T10:29:55.171Z,1.48
2023-10-04T10:32:32.051Z,1.70
2023-10-04T10:35:06.833Z,1.00
2023-10-04T10:37:42.360Z,1.33
2023-10-04T10:40:36.571Z,1.40
2023-10-04T10:43:15.836Z,1.13
2023-10-04T10:45:48.375Z,1.20
2023-10-04T10:48:35.785Z,1.05
2023-10-04T10:51:06.569Z,1.20
2023-10-04T10:53:40.093Z,1.80
2023-10-04T10:56:14.207Z,1.88
2023-10-04T10:58:53.343Z,1.15
2023-10-04T11:01:25.914Z,1.15
2023-10-04T11:04:02.789Z,1.45
2023-10-04T11:06:36.950Z,1.40
2023-10-04T11:09:14.899Z,1.02
2023-10-04T11:11:49.448Z,1.48
2023-10-04T11:14:24.128Z,1.23
2023-10-04T11:16:57.314Z,1.55
2023-10-04T11:19:28.583Z,1.02
2023-10-04T11:22:00.796Z,1.10
2023-10-04T11:24:34.548Z,1.45
2023-10-04T11:27:05.459Z,1.45
2023-10-04T11:29:37.245Z,1.05
2023-10-04T11:32:11.030Z,1.75
2023-10-04T11:34:44.677Z,1.50
2023-10-04T11:37:16.278Z,1.45
2023-10-04T11:39:52.644Z,1.67
2023-10-04T11:42:26.420Z,1.25
2023-10-04T11:45:04.089Z,1.15
2023-10-04T11:47:39.008Z,1.05
2023-10-04T11:50:12.718Z,0.93
2023-10-04T11:52:44.461Z,0.95
2023-10-04T11:55:37.594Z,1.02
2023-10-04T11:58:11.830Z,1.15
2023-10-04T12:00:43.979Z,0.85
2023-10-04T12:03:17.280Z,1.05
2023-10-04T12:05:47.859Z,0.75
2023-10-04T12:08:20.763Z,0.98
2023-10-04T12:10:53.669Z,0.63
2023-10-04T12:13:27.541Z,0.68
2023-10-04T12:15:58.538Z,0.63
2023-10-04T12:18:32.255Z,0.70
2023-10-04T12:21:03.146Z,1.10
2023-10-04T12:23:35.711Z,0.52
2023-10-04T12:26:08.928Z,0.63
2023-10-04T12:28:39.511Z,0.75
2023-10-04T12:31:11.837Z,0.80
2023-10-04T12:33:43.298Z,0.70
2023-10-04T12:36:16.425Z,0.80
2023-10-04T12:38:47.673Z,0.35
2023-10-04T12:41:21.441Z,0.63
2023-10-04T12:43:54.801Z,0.95
2023-10-04T12:46:25.712Z,0.52
2023-10-04T12:48:56.105Z,0.52
2023-10-04T12:51:27.993Z,0.25
2023-10-04T12:53:58.966Z,0.68
2023-10-04T12:56:32.377Z,0.65
2023-10-04T12:59:05.003Z,0.45
2023-10-04T13:01:36.369Z,0.98
2023-10-04T13:04:10.304Z,0.50
2023-10-04T13:06:42.338Z,0.43
2023-10-04T13:09:20.193Z,0.73
2023-10-04T13:11:55.931Z,0.55
2023-10-04T13:14:26.198Z,0.55
2023-10-04T13:17:00.102Z,0.65
2023-10-04T13:19:34.235Z,0.80
2023-10-04T13:22:07.139Z,0.73
2023-10-04T13:24:41.425Z,0.60
2023-10-04T13:27:14.910Z,0.65
2023-10-04T13:29:45.828Z,0.63
2023-10-04T13:32:17.030Z,0.52
2023-10-04T13:34:47.543Z,0.70
2023-10-04T13:37:17.784Z,0.57
2023-10-04T13:39:49.180Z,0.80
2023-10-04T13:44:58.678Z,0.73
2023-10-04T13:47:34.924Z,0.65
2023-10-04T13:50:09.572Z,0.57
2023-10-04T13:52:43.654Z,0.45
2023-10-04T13:55:14.480Z,0.75
2023-10-04T13:57:47.408Z,0.60
2023-10-04T14:00:27.019Z,0.50
2023-10-04T14:03:00.694Z,0.77
2023-10-04T14:05:31.264Z,0.68
2023-10-04T14:08:02.179Z,0.63
2023-10-04T14:10:37.907Z,1.13
2023-10-04T14:13:13.321Z,0.52
2023-10-04T14:15:44.243Z,0.45
2023-10-04T14:18:16.678Z,1.13
2023-10-04T14:20:48.084Z,0.65
2023-10-04T14:23:25.820Z,0.50
2023-10-04T14:25:58.538Z,0.55
2023-10-04T14:28:36.655Z,0.68
2023-10-04T14:31:07.559Z,0.70
2023-10-04T14:33:37.932Z,0.82
2023-10-04T14:36:09.379Z,0.63
2023-10-04T14:38:40.191Z,0.70
2023-10-04T14:41:16.976Z,1.60
2023-10-04T14:43:50.976Z,0.50
2023-10-04T14:46:22.155Z,1.05
2023-10-04T14:48:54.436Z,0.73
2023-10-04T14:51:27.205Z,0.45
2023-10-04T14:53:59.599Z,0.55
2023-10-04T14:56:31.762Z,0.60
2023-10-04T14:59:08.477Z,0.95
2023-10-04T15:01:42.541Z,0.82
2023-10-04T15:04:18.731Z,0.90
2023-10-04T15:06:49.831Z,1.38
2023-10-04T15:09:20.428Z,0.70
2023-10-04T15:11:56.577Z,0.98
2023-10-04T15:14:30.169Z,0.73
2023-10-04T15:17:00.768Z,0.82
2023-10-04T15:19:32.134Z,0.93
2023-10-04T15:22:02.519Z,1.45
2023-10-04T15:24:34.377Z,1.05
2023-10-04T15:27:05.241Z,0.70
2023-10-04T15:29:39.979Z,0.70
2023-10-04T15:32:13.740Z,0.70
2023-10-04T15:34:57.447Z,0.77
2023-10-04T15:37:28.499Z,1.25
2023-10-04T15:39:59.871Z,0.95
2023-10-04T15:42:32.222Z,0.77
2023-10-04T15:45:05.348Z,0.93
2023-10-04T15:47:37.430Z,1.38
2023-10-04T15:50:10.432Z,1.63
2023-10-04T15:52:42.981Z,1.70
2023-10-04T15:55:14.221Z,0.82
2023-10-04T15:57:47.915Z,1.00
2023-10-04T16:00:31.524Z,0.95
2023-10-04T16:03:02.950Z,0.85
2023-10-04T16:05:35.560Z,0.73
2023-10-04T16:08:06.788Z,0.80
2023-10-04T16:10:39.084Z,0.70
2023-10-04T16:13:10.245Z,1.27
2023-10-04T16:15:44.530Z,0.82
2023-10-04T16:18:16.211Z,1.15
2023-10-04T16:20:48.683Z,0.75
2023-10-04T16:23:26.880Z,0.85
2023-10-04T16:25:57.682Z,1.65
2023-10-04T16:31:02.791Z,1.33
2023-10-04T16:33:37.009Z,1.70
2023-10-04T16:36:08.142Z,1.42
2023-10-04T16:38:44.935Z,1.85
2023-10-04T16:41:15.543Z,2.00
2023-10-04T16:43:45.834Z,1.58
2023-10-04T16:48:49.478Z,1.80
2023-10-04T16:51:20.282Z,1.33
2023-10-04T16:56:22.043Z,1.05
2023-10-04T16:58:58.253Z,2.13
2023-10-04T17:01:34.708Z,0.93
2023-10-04T17:06:37.407Z,2.15
2023-10-04T17:09:08.928Z,1.67
2023-10-04T17:11:41.890Z,1.88
2023-10-04T17:14:15.474Z,1.98
2023-10-04T17:16:51.162Z,1.38
2023-10-04T17:19:24.790Z,1.98
2023-10-04T17:22:07.687Z,2.40
2023-10-04T17:25:04.207Z,1.55
2023-10-04T17:27:37.361Z,2.13
2023-10-04T17:30:20.851Z,1.67
2023-10-04T17:32:54.077Z,1.63
2023-10-04T17:35:24.490Z,1.70
2023-10-04T17:37:59.141Z,0.90
2023-10-04T17:40:32.980Z,1.70
2023-10-04T17:43:03.881Z,0.90
2023-10-04T17:45:42.703Z,0.82
2023-10-04T17:48:20.661Z,1.17
2023-10-04T17:50:54.585Z,0.63
2023-10-04T17:53:37.900Z,1.05
2023-10-04T17:56:13.594Z,1.05
2023-10-04T17:58:45.501Z,0.93
2023-10-04T18:01:19.219Z,1.48
2023-10-04T18:03:54.482Z,1.70
2023-10-04T18:06:28.831Z,1.27
2023-10-04T18:08:59.763Z,1.75
2023-10-04T18:11:36.114Z,2.35
2023-10-04T18:14:10.646Z,1.80
2023-10-04T18:16:42.815Z,1.33
2023-10-04T18:19:22.465Z,2.17
2023-10-04T18:21:59.007Z,1.55
2023-10-04T18:24:44.375Z,1.90
2023-10-04T18:27:25.292Z,1.27
2023-10-04T18:30:16.658Z,2.13
2023-10-04T18:32:57.389Z,1.73
2023-10-04T18:35:36.552Z,1.20
2023-10-04T18:38:14.851Z,1.15
2023-10-04T18:40:45.841Z,1.17
2023-10-04T18:43:23.093Z,1.13
2023-10-04T18:45:59.794Z,1.42
2023-10-04T18:48:36.664Z,2.35
2023-10-04T18:51:10.679Z,1.85
2023-10-04T18:53:42.619Z,1.63
2023-10-04T18:56:14.425Z,2.78
2023-10-04T18:58:48.198Z,1.55
2023-10-04T19:01:27.676Z,1.58
2023-10-04T19:04:11.521Z,2.00
2023-10-04T19:06:45.953Z,1.40
2023-10-04T19:09:18.611Z,1.50
2023-10-04T19:11:50.118Z,1.77
2023-10-04T19:14:24.703Z,1.83
2023-10-04T19:16:58.463Z,1.00
2023-10-04T19:19:35.660Z,0.98
2023-10-04T19:27:13.773Z,1.20
2023-10-04T19:29:45.132Z,0.93
2023-10-04T19:32:16.446Z,2.15
2023-10-04T19:34:47.261Z,1.27
2023-10-04T19:37:24.551Z,1.10
2023-10-04T19:39:56.916Z,1.80
2023-10-04T19:42:30.643Z,1.70
2023-10-04T19:45:01.741Z,1.10
2023-10-04T19:47:34.115Z,2.08
2023-10-04T19:50:07.527Z,1.75
2023-10-04T19:52:50.615Z,1.30
2023-10-04T19:55:25.301Z,1.40
2023-10-04T19:57:56.355Z,1.67
2023-10-04T20:00:30.442Z,1.17
2023-10-04T20:03:02.532Z,1.55
2023-10-04T20:05:35.150Z,1.15
2023-10-04T20:08:15.864Z,0.77
2023-10-04T20:10:47.176Z,1.20
2023-10-04T20:13:18.508Z,1.92
2023-10-04T20:15:49.950Z,1.70
2023-10-04T20:18:20.371Z,1.50
2023-10-04T20:20:51.697Z,2.05
2023-10-04T20:23:36.760Z,1.70
2023-10-04T20:26:13.672Z,2.20
2023-10-04T20:28:45.549Z,1.00
2023-10-04T20:31:15.948Z,2.08
2023-10-04T20:33:47.269Z,2.03
2023-10-04T20:36:17.659Z,2.17
2023-10-04T20:38:53.237Z,0.95
2023-10-04T20:41:28.160Z,2.50
2023-10-04T20:43:59.983Z,1.98
2023-10-04T20:46:31.366Z,1.42
2023-10-04T20:49:04.525Z,1.65
2023-10-04T20:51:38.440Z,1.10
2023-10-04T20:54:12.840Z,1.92
2023-10-04T20:56:43.584Z,1.27
2023-10-04T20:59:13.829Z,1.05
2023-10-04T21:01:44.265Z,1.02
2023-10-04T21:04:18.979Z,1.67
2023-10-04T21:06:50.645Z,1.13
2023-10-04T21:09:28.288Z,1.40
2023-10-04T21:12:00.962Z,1.30
2023-10-04T21:14:31.363Z,1.40
2023-10-04T21:17:02.098Z,1.08
2023-10-04T21:19:38.172Z,1.02
2023-10-04T21:22:10.497Z,1.25
2023-10-04T21:24:49.001Z,1.00
2023-10-04T21:27:24.026Z,0.90
2023-10-04T21:29:59.490Z,0.95
2023-10-04T21:32:38.108Z,0.65
2023-10-04T21:35:15.549Z,1.23
2023-10-04T21:37:50.609Z,1.10
2023-10-04T21:40:27.124Z,1.10
2023-10-04T21:43:00.848Z,0.88
2023-10-04T21:45:34.434Z,1.58
2023-10-04T21:48:08.339Z,1.95
2023-10-04T21:50:41.380Z,1.45
2023-10-04T21:53:12.383Z,1.73
2023-10-04T21:55:47.409Z,0.75
2023-10-04T21:58:20.757Z,1.63
2023-10-04T22:00:55.059Z,1.48
2023-10-04T22:03:27.482Z,1.70
2023-10-04T22:05:59.644Z,1.60
2023-10-04T22:08:31.243Z,1.02
2023-10-04T22:11:04.083Z,1.50
2023-10-04T22:13:41.601Z,1.42
2023-10-04T22:16:12.003Z,1.40
2023-10-04T22:18:46.444Z,0.85
2023-10-04T22:21:17.371Z,0.90
2023-10-04T22:23:47.678Z,0.75
2023-10-04T22:26:22.261Z,0.63
2023-10-04T22:28:56.037Z,1.52
2023-10-04T22:31:26.450Z,1.08
2023-10-04T22:36:36.498Z,0.95
2023-10-04T22:39:10.494Z,0.80
2023-10-04T22:41:44.042Z,1.48
2023-10-04T22:44:17.536Z,1.33
2023-10-04T22:46:49.336Z,1.33
2023-10-04T22:49:20.155Z,1.65
2023-10-04T22:51:50.714Z,1.52
2023-10-04T22:54:21.714Z,0.80
2023-10-04T22:56:56.015Z,0.95
2023-10-04T22:59:31.254Z,0.73
2023-10-04T23:02:02.454Z,0.85
2023-10-04T23:04:37.529Z,0.70
2023-10-04T23:07:11.154Z,1.05
2023-10-04T23:09:43.418Z,0.85
2023-10-04T23:12:16.408Z,1.15
2023-10-04T23:14:50.862Z,0.65
2023-10-04T23:17:26.619Z,0.70
2023-10-04T23:19:59.954Z,0.70
2023-10-04T23:22:31.315Z,0.73
2023-10-04T23:25:04.776Z,0.80
2023-10-04T23:27:38.967Z,0.47
2023-10-04T23:30:16.256Z,1.13
2023-10-04T23:32:49.144Z,0.60
2023-10-04T23:35:43.385Z,0.85
2023-10-04T23:38:48.084Z,0.70
2023-10-04T23:41:34.074Z,0.93
2023-10-04T23:44:13.589Z,1.05
2023-10-04T23:46:45.309Z,0.95
2023-10-04T23:49:20.857Z,0.47
2023-10-04T23:51:54.847Z,0.60
2023-10-04T23:54:31.058Z,1.58
2023-10-04T23:57:14.416Z,0.75
2023-10-04T23:59:55.909Z,0.90
